Terminal Aerodrome Forecast
Issued by NWS

Home | Current Version | Previous Version | Text Only | Print | Product List | Glossary Off
Versions: 1 2 3 4 5 6 7 8 9 10 11 12 13 14

000
FTUS45 KGGW 191733 AAC
TAFOLF
TAF AMD
KOLF 191733Z 1918/2018 VRB03KT P6SM SCT250
      TEMPO 1918/1919 5SM BR
     FM200600 25004KT P6SM BKN080
     FM200800 25004KT P6SM SCT020 BKN080
     FM201000 26004KT P6SM SCT025 BKN080
      TEMPO 2010/2014 2SM BR BKN020=

USA.gov is the U.S. government's official web portal to all federal, state and local government web resources and services.